sensor_id;sensor_type;location;lat;lon;timestamp;temperature;humidity
8095;DHT22;4090;49.270;8.696;2023-04-29T00:01:20;17.40;99.90
8095;DHT22;4090;49.270;8.696;2023-04-29T00:04:02;17.20;99.90
8095;DHT22;4090;49.270;8.696;2023-04-29T00:06:43;17.10;99.90
8095;DHT22;4090;49.270;8.696;2023-04-29T00:09:25;17.10;99.90
8095;DHT22;4090;49.270;8.696;2023-04-29T00:12:07;16.90;99.90
8095;DHT22;4090;49.270;8.696;2023-04-29T00:14:51;17.00;99.90
8095;DHT22;4090;49.270;8.696;2023-04-29T00:17:34;17.00;99.90
8095;DHT22;4090;49.270;8.696;2023-04-29T00:20:16;17.10;99.90
8095;DHT22;4090;49.270;8.696;2023-04-29T00:22:58;17.00;99.90
8095;DHT22;4090;49.270;8.696;2023-04-29T00:25:39;16.80;99.90
8095;DHT22;4090;49.270;8.696;2023-04-29T00:28:21;16.90;99.90
8095;DHT22;4090;49.270;8.696;2023-04-29T00:31:04;16.90;99.90
8095;DHT22;4090;49.270;8.696;2023-04-29T00:33:46;16.80;99.90
8095;DHT22;4090;49.270;8.696;2023-04-29T00:36:28;16.80;99.90
8095;DHT22;4090;49.270;8.696;2023-04-29T00:39:11;16.80;99.90
8095;DHT22;4090;49.270;8.696;2023-04-29T00:41:53;16.80;99.90
8095;DHT22;4090;49.270;8.696;2023-04-29T00:44:35;16.70;99.90
8095;DHT22;4090;49.270;8.696;2023-04-29T00:47:18;16.70;99.90
8095;DHT22;4090;49.270;8.696;2023-04-29T00:50:00;16.60;99.90
8095;DHT22;4090;49.270;8.696;2023-04-29T00:52:42;16.70;99.90
8095;DHT22;4090;49.270;8.696;2023-04-29T00:55:24;16.60;99.90
8095;DHT22;4090;49.270;8.696;2023-04-29T00:58:07;16.60;99.90
8095;DHT22;4090;49.270;8.696;2023-04-29T01:00:49;16.60;99.90
8095;DHT22;4090;49.270;8.696;2023-04-29T01:03:33;16.60;99.90
8095;DHT22;4090;49.270;8.696;2023-04-29T01:06:18;16.50;99.90
8095;DHT22;4090;49.270;8.696;2023-04-29T01:09:05;16.60;99.90
8095;DHT22;4090;49.270;8.696;2023-04-29T01:11:52;16.80;99.90
8095;DHT22;4090;49.270;8.696;2023-04-29T01:14:35;16.90;99.90
8095;DHT22;4090;49.270;8.696;2023-04-29T01:17:20;16.90;99.90
8095;DHT22;4090;49.270;8.696;2023-04-29T01:20:06;17.00;99.90
8095;DHT22;4090;49.270;8.696;2023-04-29T01:22:50;16.90;99.90
8095;DHT22;4090;49.270;8.696;2023-04-29T01:25:33;16.90;99.90
8095;DHT22;4090;49.270;8.696;2023-04-29T01:28:32;16.90;99.90
8095;DHT22;4090;49.270;8.696;2023-04-29T01:31:23;17.00;99.90
8095;DHT22;4090;49.270;8.696;2023-04-29T01:34:07;17.00;99.90
8095;DHT22;4090;49.270;8.696;2023-04-29T01:36:50;17.00;99.90
8095;DHT22;4090;49.270;8.696;2023-04-29T01:39:35;17.00;99.90
8095;DHT22;4090;49.270;8.696;2023-04-29T01:42:26;17.10;99.90
8095;DHT22;4090;49.270;8.696;2023-04-29T01:45:12;17.00;99.90
8095;DHT22;4090;49.270;8.696;2023-04-29T01:47:55;17.10;99.90
8095;DHT22;4090;49.270;8.696;2023-04-29T01:50:39;17.10;99.90
8095;DHT22;4090;49.270;8.696;2023-04-29T01:53:28;17.10;99.90
8095;DHT22;4090;49.270;8.696;2023-04-29T01:56:09;17.20;99.90
8095;DHT22;4090;49.270;8.696;2023-04-29T01:59:15;17.20;99.90
8095;DHT22;4090;49.270;8.696;2023-04-29T02:02:33;17.30;99.90
8095;DHT22;4090;49.270;8.696;2023-04-29T02:05:24;17.30;99.90
8095;DHT22;4090;49.270;8.696;2023-04-29T02:08:10;17.20;99.90
8095;DHT22;4090;49.270;8.696;2023-04-29T02:10:57;17.20;99.90
8095;DHT22;4090;49.270;8.696;2023-04-29T02:13:48;17.20;99.90
8095;DHT22;4090;49.270;8.696;2023-04-29T02:16:32;17.30;99.90
8095;DHT22;4090;49.270;8.696;2023-04-29T02:19:17;17.30;99.90
8095;DHT22;4090;49.270;8.696;2023-04-29T02:21:59;17.30;99.90
8095;DHT22;4090;49.270;8.696;2023-04-29T02:24:40;17.30;99.90
8095;DHT22;4090;49.270;8.696;2023-04-29T02:27:22;17.30;99.90
8095;DHT22;4090;49.270;8.696;2023-04-29T02:30:04;17.30;99.90
8095;DHT22;4090;49.270;8.696;2023-04-29T02:32:48;17.40;99.90
8095;DHT22;4090;49.270;8.696;2023-04-29T02:35:30;17.40;99.90
8095;DHT22;4090;49.270;8.696;2023-04-29T02:38:12;17.40;99.90
8095;DHT22;4090;49.270;8.696;2023-04-29T02:40:54;17.40;99.90
8095;DHT22;4090;49.270;8.696;2023-04-29T02:43:35;17.10;99.90
8095;DHT22;4090;49.270;8.696;2023-04-29T02:46:17;17.10;99.90
8095;DHT22;4090;49.270;8.696;2023-04-29T02:49:18;17.10;99.90
8095;DHT22;4090;49.270;8.696;2023-04-29T02:52:19;17.10;99.90
8095;DHT22;4090;49.270;8.696;2023-04-29T02:55:02;17.10;99.90
8095;DHT22;4090;49.270;8.696;2023-04-29T02:57:43;17.10;99.90
8095;DHT22;4090;49.270;8.696;2023-04-29T03:00:25;17.10;99.90
8095;DHT22;4090;49.270;8.696;2023-04-29T03:03:07;17.10;99.90
8095;DHT22;4090;49.270;8.696;2023-04-29T03:05:50;17.00;99.90
8095;DHT22;4090;49.270;8.696;2023-04-29T03:08:32;17.00;99.90
8095;DHT22;4090;49.270;8.696;2023-04-29T03:11:16;17.10;99.90
8095;DHT22;4090;49.270;8.696;2023-04-29T03:13:58;17.20;99.90
8095;DHT22;4090;49.270;8.696;2023-04-29T03:16:40;17.20;99.90
8095;DHT22;4090;49.270;8.696;2023-04-29T03:19:23;17.20;99.90
8095;DHT22;4090;49.270;8.696;2023-04-29T03:22:06;17.20;99.90
8095;DHT22;4090;49.270;8.696;2023-04-29T03:24:50;17.30;99.90
8095;DHT22;4090;49.270;8.696;2023-04-29T03:27:32;17.20;99.90
8095;DHT22;4090;49.270;8.696;2023-04-29T03:30:13;17.20;99.90
8095;DHT22;4090;49.270;8.696;2023-04-29T03:33:01;17.20;99.90
8095;DHT22;4090;49.270;8.696;2023-04-29T03:35:44;17.20;99.90
8095;DHT22;4090;49.270;8.696;2023-04-29T03:38:36;17.20;99.90
8095;DHT22;4090;49.270;8.696;2023-04-29T03:41:18;17.20;99.90
8095;DHT22;4090;49.270;8.696;2023-04-29T03:44:01;17.20;99.90
8095;DHT22;4090;49.270;8.696;2023-04-29T03:46:43;17.20;99.90
8095;DHT22;4090;49.270;8.696;2023-04-29T03:49:25;17.20;99.90
8095;DHT22;4090;49.270;8.696;2023-04-29T03:52:07;17.20;99.90
8095;DHT22;4090;49.270;8.696;2023-04-29T03:54:50;17.20;99.90
8095;DHT22;4090;49.270;8.696;2023-04-29T03:57:31;17.20;99.90
8095;DHT22;4090;49.270;8.696;2023-04-29T04:00:14;17.20;99.90
8095;DHT22;4090;49.270;8.696;2023-04-29T04:03:00;17.20;99.90
8095;DHT22;4090;49.270;8.696;2023-04-29T04:05:42;17.30;99.90
8095;DHT22;4090;49.270;8.696;2023-04-29T04:08:28;17.30;99.90
8095;DHT22;4090;49.270;8.696;2023-04-29T04:11:16;17.30;99.90
8095;DHT22;4090;49.270;8.696;2023-04-29T04:14:02;17.30;99.90
8095;DHT22;4090;49.270;8.696;2023-04-29T04:16:45;17.30;99.90
8095;DHT22;4090;49.270;8.696;2023-04-29T04:19:27;17.30;99.90
8095;DHT22;4090;49.270;8.696;2023-04-29T04:22:10;17.30;99.90
8095;DHT22;4090;49.270;8.696;2023-04-29T04:24:54;17.30;99.90
8095;DHT22;4090;49.270;8.696;2023-04-29T04:27:38;17.30;99.90
8095;DHT22;4090;49.270;8.696;2023-04-29T04:30:23;17.30;99.90
8095;DHT22;4090;49.270;8.696;2023-04-29T04:33:05;17.30;99.90
8095;DHT22;4090;49.270;8.696;2023-04-29T04:35:48;17.30;99.90
8095;DHT22;4090;49.270;8.696;2023-04-29T04:38:30;17.30;99.90
8095;DHT22;4090;49.270;8.696;2023-04-29T04:41:12;17.20;99.90
8095;DHT22;4090;49.270;8.696;2023-04-29T04:43:58;17.20;99.90
8095;DHT22;4090;49.270;8.696;2023-04-29T04:47:03;17.20;99.90
8095;DHT22;4090;49.270;8.696;2023-04-29T04:50:14;17.20;99.90
8095;DHT22;4090;49.270;8.696;2023-04-29T04:53:00;17.20;99.90
8095;DHT22;4090;49.270;8.696;2023-04-29T04:55:59;17.00;99.90
8095;DHT22;4090;49.270;8.696;2023-04-29T04:58:41;17.00;99.90
8095;DHT22;4090;49.270;8.696;2023-04-29T05:01:25;17.10;99.90
8095;DHT22;4090;49.270;8.696;2023-04-29T05:04:07;17.10;99.90
8095;DHT22;4090;49.270;8.696;2023-04-29T05:06:48;17.10;99.90
8095;DHT22;4090;49.270;8.696;2023-04-29T05:09:32;17.20;99.90
8095;DHT22;4090;49.270;8.696;2023-04-29T05:12:14;17.20;99.90
8095;DHT22;4090;49.270;8.696;2023-04-29T05:14:56;17.20;99.90
8095;DHT22;4090;49.270;8.696;2023-04-29T05:17:41;17.20;99.90
8095;DHT22;4090;49.270;8.696;2023-04-29T05:20:23;17.20;99.90
8095;DHT22;4090;49.270;8.696;2023-04-29T05:23:05;17.20;99.90
8095;DHT22;4090;49.270;8.696;2023-04-29T05:25:51;17.20;99.90
8095;DHT22;4090;49.270;8.696;2023-04-29T05:28:33;17.10;99.90
8095;DHT22;4090;49.270;8.696;2023-04-29T05:31:15;17.10;99.90
8095;DHT22;4090;49.270;8.696;2023-04-29T05:33:58;17.10;99.90
8095;DHT22;4090;49.270;8.696;2023-04-29T05:36:40;17.10;99.90
8095;DHT22;4090;49.270;8.696;2023-04-29T05:39:22;17.20;99.90
8095;DHT22;4090;49.270;8.696;2023-04-29T05:42:14;17.20;99.90
8095;DHT22;4090;49.270;8.696;2023-04-29T05:45:00;17.20;99.90
8095;DHT22;4090;49.270;8.696;2023-04-29T05:47:42;17.20;99.90
8095;DHT22;4090;49.270;8.696;2023-04-29T05:50:25;17.20;99.90
8095;DHT22;4090;49.270;8.696;2023-04-29T05:53:07;17.10;99.90
8095;DHT22;4090;49.270;8.696;2023-04-29T05:55:49;17.10;99.90
8095;DHT22;4090;49.270;8.696;2023-04-29T05:58:31;17.10;99.90
8095;DHT22;4090;49.270;8.696;2023-04-29T06:01:13;17.10;99.90
8095;DHT22;4090;49.270;8.696;2023-04-29T06:03:54;17.10;99.90
8095;DHT22;4090;49.270;8.696;2023-04-29T06:06:50;17.10;99.90
8095;DHT22;4090;49.270;8.696;2023-04-29T06:09:40;17.10;99.90
8095;DHT22;4090;49.270;8.696;2023-04-29T06:12:24;17.10;99.90
8095;DHT22;4090;49.270;8.696;2023-04-29T06:15:06;17.10;99.90
8095;DHT22;4090;49.270;8.696;2023-04-29T06:17:48;17.20;99.90
8095;DHT22;4090;49.270;8.696;2023-04-29T06:20:29;17.20;99.90
8095;DHT22;4090;49.270;8.696;2023-04-29T06:23:13;17.20;99.90
8095;DHT22;4090;49.270;8.696;2023-04-29T06:25:56;17.20;99.90
8095;DHT22;4090;49.270;8.696;2023-04-29T06:28:37;17.20;99.90
8095;DHT22;4090;49.270;8.696;2023-04-29T06:31:20;17.10;99.90
8095;DHT22;4090;49.270;8.696;2023-04-29T06:34:02;17.10;99.90
8095;DHT22;4090;49.270;8.696;2023-04-29T06:36:44;17.20;99.90
8095;DHT22;4090;49.270;8.696;2023-04-29T06:39:40;17.10;99.90
8095;DHT22;4090;49.270;8.696;2023-04-29T06:42:40;17.20;99.90
8095;DHT22;4090;49.270;8.696;2023-04-29T06:45:49;17.20;99.90
8095;DHT22;4090;49.270;8.696;2023-04-29T06:48:34;17.20;99.90
8095;DHT22;4090;49.270;8.696;2023-04-29T06:51:17;17.20;99.90
8095;DHT22;4090;49.270;8.696;2023-04-29T06:53:59;17.20;99.90
8095;DHT22;4090;49.270;8.696;2023-04-29T06:56:42;17.20;99.90
8095;DHT22;4090;49.270;8.696;2023-04-29T06:59:24;17.20;99.90
8095;DHT22;4090;49.270;8.696;2023-04-29T07:02:06;17.30;99.90
8095;DHT22;4090;49.270;8.696;2023-04-29T07:04:48;17.30;99.90
8095;DHT22;4090;49.270;8.696;2023-04-29T07:07:30;17.20;99.90
8095;DHT22;4090;49.270;8.696;2023-04-29T07:10:12;17.20;99.90
8095;DHT22;4090;49.270;8.696;2023-04-29T07:12:55;17.20;99.90
8095;DHT22;4090;49.270;8.696;2023-04-29T07:15:36;17.20;99.90
8095;DHT22;4090;49.270;8.696;2023-04-29T07:18:18;17.20;99.90
8095;DHT22;4090;49.270;8.696;2023-04-29T07:21:00;17.10;99.90
8095;DHT22;4090;49.270;8.696;2023-04-29T07:23:42;17.20;99.90
8095;DHT22;4090;49.270;8.696;2023-04-29T07:26:24;17.20;99.90
8095;DHT22;4090;49.270;8.696;2023-04-29T07:29:07;17.20;99.90
8095;DHT22;4090;49.270;8.696;2023-04-29T07:31:49;17.20;99.90
8095;DHT22;4090;49.270;8.696;2023-04-29T07:34:31;17.20;99.90
8095;DHT22;4090;49.270;8.696;2023-04-29T07:37:13;17.10;99.90
8095;DHT22;4090;49.270;8.696;2023-04-29T07:39:55;17.20;99.90
8095;DHT22;4090;49.270;8.696;2023-04-29T07:42:37;17.20;99.90
8095;DHT22;4090;49.270;8.696;2023-04-29T07:45:21;17.30;99.90
8095;DHT22;4090;49.270;8.696;2023-04-29T07:48:03;17.30;99.90
8095;DHT22;4090;49.270;8.696;2023-04-29T07:50:45;17.30;99.90
8095;DHT22;4090;49.270;8.696;2023-04-29T07:53:27;17.30;99.90
8095;DHT22;4090;49.270;8.696;2023-04-29T07:56:09;17.30;99.90
8095;DHT22;4090;49.270;8.696;2023-04-29T07:58:51;17.30;99.90
8095;DHT22;4090;49.270;8.696;2023-04-29T08:01:34;17.30;99.90
8095;DHT22;4090;49.270;8.696;2023-04-29T08:04:16;17.30;99.90
8095;DHT22;4090;49.270;8.696;2023-04-29T08:07:12;17.30;99.90
8095;DHT22;4090;49.270;8.696;2023-04-29T08:09:54;17.30;99.90
8095;DHT22;4090;49.270;8.696;2023-04-29T08:12:36;17.20;99.90
8095;DHT22;4090;49.270;8.696;2023-04-29T08:15:17;17.20;99.90
8095;DHT22;4090;49.270;8.696;2023-04-29T08:18:01;17.20;99.90
8095;DHT22;4090;49.270;8.696;2023-04-29T08:20:42;17.20;99.90
8095;DHT22;4090;49.270;8.696;2023-04-29T08:23:25;17.20;99.90
8095;DHT22;4090;49.270;8.696;2023-04-29T08:26:08;17.20;99.90
8095;DHT22;4090;49.270;8.696;2023-04-29T08:28:50;17.20;99.90
8095;DHT22;4090;49.270;8.696;2023-04-29T08:31:31;17.20;99.90
8095;DHT22;4090;49.270;8.696;2023-04-29T08:34:15;17.30;99.90
8095;DHT22;4090;49.270;8.696;2023-04-29T08:36:56;17.20;99.90
8095;DHT22;4090;49.270;8.696;2023-04-29T08:39:38;17.20;99.90
8095;DHT22;4090;49.270;8.696;2023-04-29T08:42:24;17.20;99.90
8095;DHT22;4090;49.270;8.696;2023-04-29T08:45:09;17.10;99.90
8095;DHT22;4090;49.270;8.696;2023-04-29T08:47:51;17.10;99.90
8095;DHT22;4090;49.270;8.696;2023-04-29T08:50:36;17.00;99.90
8095;DHT22;4090;49.270;8.696;2023-04-29T08:53:17;17.10;99.90
8095;DHT22;4090;49.270;8.696;2023-04-29T08:56:01;17.10;99.90
8095;DHT22;4090;49.270;8.696;2023-04-29T08:58:44;17.00;99.90
8095;DHT22;4090;49.270;8.696;2023-04-29T09:01:26;17.10;99.90
8095;DHT22;4090;49.270;8.696;2023-04-29T09:04:08;17.10;99.90
8095;DHT22;4090;49.270;8.696;2023-04-29T09:06:54;17.10;99.90
8095;DHT22;4090;49.270;8.696;2023-04-29T09:09:37;17.10;99.90
8095;DHT22;4090;49.270;8.696;2023-04-29T09:12:19;17.20;99.90
8095;DHT22;4090;49.270;8.696;2023-04-29T09:15:01;17.20;99.90
8095;DHT22;4090;49.270;8.696;2023-04-29T09:17:44;17.20;99.90
8095;DHT22;4090;49.270;8.696;2023-04-29T09:20:26;17.20;99.90
8095;DHT22;4090;49.270;8.696;2023-04-29T09:23:09;17.20;99.90
8095;DHT22;4090;49.270;8.696;2023-04-29T09:25:54;17.20;99.90
8095;DHT22;4090;49.270;8.696;2023-04-29T09:28:36;17.20;99.90
8095;DHT22;4090;49.270;8.696;2023-04-29T09:31:26;17.30;99.90
8095;DHT22;4090;49.270;8.696;2023-04-29T09:34:08;17.30;99.90
8095;DHT22;4090;49.270;8.696;2023-04-29T09:36:51;17.30;99.90
8095;DHT22;4090;49.270;8.696;2023-04-29T09:39:38;17.30;99.90
8095;DHT22;4090;49.270;8.696;2023-04-29T09:42:20;17.20;99.90
8095;DHT22;4090;49.270;8.696;2023-04-29T09:45:01;17.10;99.90
8095;DHT22;4090;49.270;8.696;2023-04-29T09:47:44;17.20;99.90
8095;DHT22;4090;49.270;8.696;2023-04-29T09:50:26;17.20;99.90
8095;DHT22;4090;49.270;8.696;2023-04-29T09:53:08;17.20;99.90
8095;DHT22;4090;49.270;8.696;2023-04-29T09:55:58;17.20;99.90
8095;DHT22;4090;49.270;8.696;2023-04-29T09:58:40;17.20;99.90
8095;DHT22;4090;49.270;8.696;2023-04-29T10:01:22;17.30;99.90
8095;DHT22;4090;49.270;8.696;2023-04-29T10:04:03;17.30;99.90
8095;DHT22;4090;49.270;8.696;2023-04-29T10:06:48;17.30;99.90
8095;DHT22;4090;49.270;8.696;2023-04-29T10:09:30;17.30;99.90
8095;DHT22;4090;49.270;8.696;2023-04-29T10:12:14;17.30;99.90
8095;DHT22;4090;49.270;8.696;2023-04-29T10:14:57;17.40;99.90
8095;DHT22;4090;49.270;8.696;2023-04-29T10:17:43;17.40;99.90
8095;DHT22;4090;49.270;8.696;2023-04-29T10:20:26;17.50;99.90
8095;DHT22;4090;49.270;8.696;2023-04-29T10:23:09;17.50;99.90
8095;DHT22;4090;49.270;8.696;2023-04-29T10:25:52;17.50;99.90
8095;DHT22;4090;49.270;8.696;2023-04-29T10:28:35;17.50;99.90
8095;DHT22;4090;49.270;8.696;2023-04-29T10:31:18;17.50;99.90
8095;DHT22;4090;49.270;8.696;2023-04-29T10:34:01;17.40;99.90
8095;DHT22;4090;49.270;8.696;2023-04-29T10:36:43;17.50;99.90
8095;DHT22;4090;49.270;8.696;2023-04-29T10:39:26;17.50;99.90
8095;DHT22;4090;49.270;8.696;2023-04-29T10:42:15;17.60;99.90
8095;DHT22;4090;49.270;8.696;2023-04-29T10:45:18;17.60;99.90
8095;DHT22;4090;49.270;8.696;2023-04-29T10:48:10;17.70;99.90
8095;DHT22;4090;49.270;8.696;2023-04-29T10:51:02;17.70;99.90
8095;DHT22;4090;49.270;8.696;2023-04-29T10:54:03;17.70;99.90
8095;DHT22;4090;49.270;8.696;2023-04-29T10:56:47;17.70;99.90
8095;DHT22;4090;49.270;8.696;2023-04-29T10:59:43;17.70;99.90
8095;DHT22;4090;49.270;8.696;2023-04-29T11:02:27;17.70;99.90
8095;DHT22;4090;49.270;8.696;2023-04-29T11:05:09;17.70;99.90
8095;DHT22;4090;49.270;8.696;2023-04-29T11:10:49;17.90;99.90
8095;DHT22;4090;49.270;8.696;2023-04-29T11:13:36;17.90;99.90
8095;DHT22;4090;49.270;8.696;2023-04-29T11:16:21;18.00;99.90
8095;DHT22;4090;49.270;8.696;2023-04-29T11:19:08;18.00;99.90
8095;DHT22;4090;49.270;8.696;2023-04-29T11:22:02;18.00;99.90
8095;DHT22;4090;49.270;8.696;2023-04-29T11:24:48;18.10;99.90
8095;DHT22;4090;49.270;8.696;2023-04-29T11:27:30;18.10;99.90
8095;DHT22;4090;49.270;8.696;2023-04-29T11:30:12;18.20;99.90
8095;DHT22;4090;49.270;8.696;2023-04-29T11:32:55;18.20;99.90
8095;DHT22;4090;49.270;8.696;2023-04-29T11:35:40;18.20;99.90
8095;DHT22;4090;49.270;8.696;2023-04-29T11:38:23;18.20;99.90
8095;DHT22;4090;49.270;8.696;2023-04-29T11:41:04;18.30;99.90
8095;DHT22;4090;49.270;8.696;2023-04-29T11:43:46;18.30;99.90
8095;DHT22;4090;49.270;8.696;2023-04-29T11:46:29;18.30;99.90
8095;DHT22;4090;49.270;8.696;2023-04-29T11:49:11;18.40;99.90
8095;DHT22;4090;49.270;8.696;2023-04-29T11:51:54;18.40;99.90
8095;DHT22;4090;49.270;8.696;2023-04-29T11:54:36;18.40;99.90
8095;DHT22;4090;49.270;8.696;2023-04-29T11:57:18;18.40;99.90
8095;DHT22;4090;49.270;8.696;2023-04-29T12:00:00;18.40;99.90
8095;DHT22;4090;49.270;8.696;2023-04-29T12:02:42;18.50;99.90
8095;DHT22;4090;49.270;8.696;2023-04-29T12:05:25;18.50;99.90
8095;DHT22;4090;49.270;8.696;2023-04-29T12:08:08;18.50;99.90
8095;DHT22;4090;49.270;8.696;2023-04-29T12:10:50;18.50;99.90
8095;DHT22;4090;49.270;8.696;2023-04-29T12:13:33;18.50;99.90
8095;DHT22;4090;49.270;8.696;2023-04-29T12:16:15;18.50;99.90
8095;DHT22;4090;49.270;8.696;2023-04-29T12:18:57;18.50;99.90
8095;DHT22;4090;49.270;8.696;2023-04-29T12:21:47;18.40;99.90
8095;DHT22;4090;49.270;8.696;2023-04-29T12:24:33;18.40;99.90
8095;DHT22;4090;49.270;8.696;2023-04-29T12:27:15;18.30;99.90
8095;DHT22;4090;49.270;8.696;2023-04-29T12:29:57;18.30;99.90
8095;DHT22;4090;49.270;8.696;2023-04-29T12:32:39;18.40;99.90
8095;DHT22;4090;49.270;8.696;2023-04-29T12:35:21;18.40;99.90
8095;DHT22;4090;49.270;8.696;2023-04-29T12:38:03;18.40;99.90
8095;DHT22;4090;49.270;8.696;2023-04-29T12:40:47;18.40;99.90
8095;DHT22;4090;49.270;8.696;2023-04-29T12:43:29;18.40;99.90
8095;DHT22;4090;49.270;8.696;2023-04-29T12:46:11;18.50;99.90
8095;DHT22;4090;49.270;8.696;2023-04-29T12:48:54;18.40;99.90
8095;DHT22;4090;49.270;8.696;2023-04-29T12:51:35;18.40;99.90
8095;DHT22;4090;49.270;8.696;2023-04-29T12:54:17;18.40;99.90
8095;DHT22;4090;49.270;8.696;2023-04-29T12:57:00;18.40;99.90
8095;DHT22;4090;49.270;8.696;2023-04-29T12:59:42;18.40;99.90
8095;DHT22;4090;49.270;8.696;2023-04-29T13:02:24;18.40;99.90
8095;DHT22;4090;49.270;8.696;2023-04-29T13:05:06;18.50;99.90
8095;DHT22;4090;49.270;8.696;2023-04-29T13:07:48;18.50;99.90
8095;DHT22;4090;49.270;8.696;2023-04-29T13:10:30;18.50;99.90
8095;DHT22;4090;49.270;8.696;2023-04-29T13:13:14;18.50;99.90
8095;DHT22;4090;49.270;8.696;2023-04-29T13:15:55;18.50;99.90
8095;DHT22;4090;49.270;8.696;2023-04-29T13:18:37;18.50;99.90
8095;DHT22;4090;49.270;8.696;2023-04-29T13:21:19;18.50;99.90
8095;DHT22;4090;49.270;8.696;2023-04-29T13:24:01;18.60;99.90
8095;DHT22;4090;49.270;8.696;2023-04-29T13:26:43;18.60;99.90
8095;DHT22;4090;49.270;8.696;2023-04-29T13:29:26;18.60;99.90
8095;DHT22;4090;49.270;8.696;2023-04-29T13:32:08;18.70;99.90
8095;DHT22;4090;49.270;8.696;2023-04-29T13:34:49;18.70;99.90
8095;DHT22;4090;49.270;8.696;2023-04-29T13:37:31;18.70;99.90
8095;DHT22;4090;49.270;8.696;2023-04-29T13:40:13;18.70;99.90
8095;DHT22;4090;49.270;8.696;2023-04-29T13:42:55;18.70;99.90
8095;DHT22;4090;49.270;8.696;2023-04-29T13:45:38;18.70;99.90
8095;DHT22;4090;49.270;8.696;2023-04-29T13:48:20;18.70;99.90
8095;DHT22;4090;49.270;8.696;2023-04-29T13:51:03;18.70;99.90
8095;DHT22;4090;49.270;8.696;2023-04-29T13:53:45;18.70;99.90
8095;DHT22;4090;49.270;8.696;2023-04-29T13:56:26;18.70;99.90
8095;DHT22;4090;49.270;8.696;2023-04-29T13:59:08;18.70;99.90
8095;DHT22;4090;49.270;8.696;2023-04-29T14:01:51;18.70;99.90
8095;DHT22;4090;49.270;8.696;2023-04-29T14:04:33;18.70;99.90
8095;DHT22;4090;49.270;8.696;2023-04-29T14:07:15;18.70;99.90
8095;DHT22;4090;49.270;8.696;2023-04-29T14:09:57;18.70;99.90
8095;DHT22;4090;49.270;8.696;2023-04-29T14:12:39;18.70;99.90
8095;DHT22;4090;49.270;8.696;2023-04-29T14:15:20;18.80;99.90
8095;DHT22;4090;49.270;8.696;2023-04-29T14:18:04;18.80;99.90
8095;DHT22;4090;49.270;8.696;2023-04-29T14:20:47;18.70;99.90
8095;DHT22;4090;49.270;8.696;2023-04-29T14:23:29;18.70;99.90
8095;DHT22;4090;49.270;8.696;2023-04-29T14:26:10;18.60;99.90
8095;DHT22;4090;49.270;8.696;2023-04-29T14:28:52;18.60;99.90
8095;DHT22;4090;49.270;8.696;2023-04-29T14:31:36;18.60;99.90
8095;DHT22;4090;49.270;8.696;2023-04-29T14:34:19;18.70;99.90
8095;DHT22;4090;49.270;8.696;2023-04-29T14:37:01;18.70;99.90
8095;DHT22;4090;49.270;8.696;2023-04-29T14:39:43;18.80;99.90
8095;DHT22;4090;49.270;8.696;2023-04-29T14:42:25;18.80;99.90
8095;DHT22;4090;49.270;8.696;2023-04-29T14:45:07;18.70;99.90
8095;DHT22;4090;49.270;8.696;2023-04-29T14:47:48;18.70;99.90
8095;DHT22;4090;49.270;8.696;2023-04-29T14:50:31;18.80;99.90
8095;DHT22;4090;49.270;8.696;2023-04-29T14:53:13;18.80;99.90
8095;DHT22;4090;49.270;8.696;2023-04-29T14:55:55;18.80;99.90
8095;DHT22;4090;49.270;8.696;2023-04-29T14:58:37;18.80;99.90
8095;DHT22;4090;49.270;8.696;2023-04-29T15:01:19;18.90;99.90
8095;DHT22;4090;49.270;8.696;2023-04-29T15:04:00;18.90;99.90
8095;DHT22;4090;49.270;8.696;2023-04-29T15:06:44;18.90;99.90
8095;DHT22;4090;49.270;8.696;2023-04-29T15:09:26;18.90;99.90
8095;DHT22;4090;49.270;8.696;2023-04-29T15:12:08;18.90;99.90
8095;DHT22;4090;49.270;8.696;2023-04-29T15:14:50;18.90;99.90
8095;DHT22;4090;49.270;8.696;2023-04-29T15:17:32;18.90;99.90
8095;DHT22;4090;49.270;8.696;2023-04-29T15:20:14;18.90;99.90
8095;DHT22;4090;49.270;8.696;2023-04-29T15:22:57;18.80;99.90
8095;DHT22;4090;49.270;8.696;2023-04-29T15:25:39;18.80;99.90
8095;DHT22;4090;49.270;8.696;2023-04-29T15:28:20;18.80;99.90
8095;DHT22;4090;49.270;8.696;2023-04-29T15:31:04;18.80;99.90
8095;DHT22;4090;49.270;8.696;2023-04-29T15:33:45;18.80;99.90
8095;DHT22;4090;49.270;8.696;2023-04-29T15:36:28;18.80;99.90
8095;DHT22;4090;49.270;8.696;2023-04-29T15:39:11;18.80;99.90
8095;DHT22;4090;49.270;8.696;2023-04-29T15:41:53;18.90;99.90
8095;DHT22;4090;49.270;8.696;2023-04-29T15:44:35;19.00;99.90
8095;DHT22;4090;49.270;8.696;2023-04-29T15:47:17;18.90;99.90
8095;DHT22;4090;49.270;8.696;2023-04-29T15:49:58;18.90;99.90
8095;DHT22;4090;49.270;8.696;2023-04-29T15:52:40;18.90;99.90
8095;DHT22;4090;49.270;8.696;2023-04-29T15:55:23;18.90;99.90
8095;DHT22;4090;49.270;8.696;2023-04-29T15:58:05;19.00;99.90
8095;DHT22;4090;49.270;8.696;2023-04-29T16:00:46;19.00;99.90
8095;DHT22;4090;49.270;8.696;2023-04-29T16:03:28;19.00;99.90
8095;DHT22;4090;49.270;8.696;2023-04-29T16:06:10;19.10;99.90
8095;DHT22;4090;49.270;8.696;2023-04-29T16:08:52;19.20;99.90
8095;DHT22;4090;49.270;8.696;2023-04-29T16:11:37;19.20;99.90
8095;DHT22;4090;49.270;8.696;2023-04-29T16:14:19;19.20;99.90
8095;DHT22;4090;49.270;8.696;2023-04-29T16:17:00;19.20;99.90
8095;DHT22;4090;49.270;8.696;2023-04-29T16:19:44;19.30;99.90
8095;DHT22;4090;49.270;8.696;2023-04-29T16:22:27;19.30;99.90
8095;DHT22;4090;49.270;8.696;2023-04-29T16:25:09;19.30;99.90
8095;DHT22;4090;49.270;8.696;2023-04-29T16:27:52;19.30;99.90
8095;DHT22;4090;49.270;8.696;2023-04-29T16:30:34;19.30;99.90
8095;DHT22;4090;49.270;8.696;2023-04-29T16:33:16;19.30;99.90
8095;DHT22;4090;49.270;8.696;2023-04-29T16:35:57;19.30;99.90
8095;DHT22;4090;49.270;8.696;2023-04-29T16:38:39;19.20;99.90
8095;DHT22;4090;49.270;8.696;2023-04-29T16:41:21;19.20;99.90
8095;DHT22;4090;49.270;8.696;2023-04-29T16:44:04;19.20;99.90
8095;DHT22;4090;49.270;8.696;2023-04-29T16:46:46;19.20;99.90
8095;DHT22;4090;49.270;8.696;2023-04-29T16:49:28;19.20;99.90
8095;DHT22;4090;49.270;8.696;2023-04-29T16:52:10;19.20;99.90
8095;DHT22;4090;49.270;8.696;2023-04-29T16:54:53;19.20;99.90
8095;DHT22;4090;49.270;8.696;2023-04-29T16:57:35;19.20;99.90
8095;DHT22;4090;49.270;8.696;2023-04-29T17:00:18;19.10;99.90
8095;DHT22;4090;49.270;8.696;2023-04-29T17:03:00;19.10;99.90
8095;DHT22;4090;49.270;8.696;2023-04-29T17:05:42;19.10;99.90
8095;DHT22;4090;49.270;8.696;2023-04-29T17:08:24;19.10;99.90
8095;DHT22;4090;49.270;8.696;2023-04-29T17:11:05;19.10;99.90
8095;DHT22;4090;49.270;8.696;2023-04-29T17:16:31;17.80;99.90
8095;DHT22;4090;49.270;8.696;2023-04-29T17:19:13;17.50;99.90
8095;DHT22;4090;49.270;8.696;2023-04-29T17:21:56;17.40;99.90
8095;DHT22;4090;49.270;8.696;2023-04-29T17:24:37;17.30;99.90
8095;DHT22;4090;49.270;8.696;2023-04-29T17:27:19;17.20;99.90
8095;DHT22;4090;49.270;8.696;2023-04-29T17:30:01;17.10;99.90
8095;DHT22;4090;49.270;8.696;2023-04-29T17:32:44;17.10;99.90
8095;DHT22;4090;49.270;8.696;2023-04-29T17:35:28;17.10;99.90
8095;DHT22;4090;49.270;8.696;2023-04-29T17:38:10;17.10;99.90
8095;DHT22;4090;49.270;8.696;2023-04-29T17:40:52;17.10;99.90
8095;DHT22;4090;49.270;8.696;2023-04-29T17:43:34;17.00;99.90
8095;DHT22;4090;49.270;8.696;2023-04-29T17:46:16;17.00;99.90
8095;DHT22;4090;49.270;8.696;2023-04-29T17:48:59;17.00;99.90
8095;DHT22;4090;49.270;8.696;2023-04-29T17:51:41;17.00;99.90
8095;DHT22;4090;49.270;8.696;2023-04-29T17:54:23;17.00;99.90